Time,TemperatureF,DewpointF,PressureIn,WindDirection,WindDirectionDegrees,WindSpeedMPH,WindSpeedGustMPH,Humidity,HourlyPrecipIn,Conditions,Clouds,dailyrainin,SoftwareType,DateUTC
2013-03-10 00:00:00,38.5,24.5,30.28,NE,45,0.0,0.0,57,0.00,,,0.00,WUHU216HW,2013-03-10 05:00:00,
2013-03-10 00:01:00,38.5,24.5,30.28,NE,45,0.0,0.0,57,0.00,,,0.00,WUHU216HW,2013-03-10 05:01:00,
2013-03-10 00:06:00,38.7,24.7,30.28,NE,45,0.0,0.0,57,0.00,,,0.00,WUHU216HW,2013-03-10 05:06:00,
2013-03-10 00:11:00,38.7,24.7,30.28,NE,45,0.0,0.0,57,0.00,,,0.00,WUHU216HW,2013-03-10 05:11:00,
2013-03-10 00:16:00,38.5,24.9,30.28,NE,45,0.0,0.0,58,0.00,,,0.00,WUHU216HW,2013-03-10 05:16:00,
2013-03-10 00:21:00,38.3,25.2,30.28,NE,45,0.0,0.0,59,0.00,,,0.00,WUHU216HW,2013-03-10 05:21:00,
2013-03-10 00:26:00,38.2,25.0,30.28,NE,45,0.0,0.0,59,0.00,,,0.00,WUHU216HW,2013-03-10 05:26:00,
2013-03-10 00:31:00,38.2,25.5,30.28,NE,45,0.0,0.0,60,0.00,,,0.00,WUHU216HW,2013-03-10 05:31:00,
2013-03-10 00:36:00,38.0,25.3,30.28,NE,45,0.0,0.0,60,0.00,,,0.00,WUHU216HW,2013-03-10 05:36:00,
2013-03-10 00:41:00,37.8,25.2,30.28,NE,45,0.0,0.0,60,0.00,,,0.00,WUHU216HW,2013-03-10 05:41:00,
2013-03-10 00:47:00,37.8,25.2,30.28,NE,45,0.0,0.0,60,0.00,,,0.00,WUHU216HW,2013-03-10 05:47:00,
2013-03-10 00:52:00,37.6,25.0,30.28,NE,45,0.0,0.0,60,0.00,,,0.00,WUHU216HW,2013-03-10 05:52:00,
2013-03-10 00:57:00,37.4,24.8,30.28,NE,45,0.0,0.0,60,0.00,,,0.00,WUHU216HW,2013-03-10 05:57:00,
2013-03-10 01:02:00,37.4,24.8,30.29,NE,45,0.0,0.0,60,0.00,,,0.00,WUHU216HW,2013-03-10 06:02:00,
2013-03-10 01:07:00,37.3,24.7,30.29,NE,45,0.0,0.0,60,0.00,,,0.00,WUHU216HW,2013-03-10 06:07:00,
2013-03-10 01:12:00,37.1,24.5,30.28,NE,45,0.0,0.0,60,0.00,,,0.00,WUHU216HW,2013-03-10 06:12:00,
2013-03-10 01:17:00,37.1,24.5,30.28,NE,45,0.0,0.0,60,0.00,,,0.00,WUHU216HW,2013-03-10 06:17:00,
2013-03-10 01:22:00,36.9,24.4,30.28,NE,45,0.0,0.0,60,0.00,,,0.00,WUHU216HW,2013-03-10 06:22:00,
2013-03-10 01:27:00,36.7,24.2,30.28,NE,45,0.0,0.0,60,0.00,,,0.00,WUHU216HW,2013-03-10 06:27:00,
2013-03-10 01:32:00,36.5,24.0,30.28,NE,45,0.0,0.0,60,0.00,,,0.00,WUHU216HW,2013-03-10 06:32:00,
2013-03-10 01:38:00,36.4,24.2,30.28,NE,45,0.0,0.0,61,0.00,,,0.00,WUHU216HW,2013-03-10 06:38:00,
2013-03-10 01:43:00,36.4,24.2,30.28,NE,45,0.0,0.0,61,0.00,,,0.00,WUHU216HW,2013-03-10 06:43:00,
2013-03-10 01:48:00,36.2,24.0,30.28,NE,45,0.0,0.0,61,0.00,,,0.00,WUHU216HW,2013-03-10 06:48:00,
2013-03-10 01:53:00,36.0,24.0,30.28,NE,45,0.0,0.0,61,0.00,,,0.00,WUHU216HW,2013-03-10 06:53:00,
2013-03-10 01:58:00,35.8,23.8,30.27,NE,45,0.0,0.0,61,0.00,,,0.00,WUHU216HW,2013-03-10 06:58:00,
2013-03-10 03:03:00,35.6,23.9,30.28,NE,45,0.0,0.0,62,0.00,,,0.00,WUHU216HW,2013-03-10 07:03:00,
2013-03-10 03:08:00,35.6,23.9,30.27,NE,45,0.0,0.0,62,0.00,,,0.00,WUHU216HW,2013-03-10 07:08:00,
2013-03-10 03:13:00,35.5,23.8,30.27,NE,45,0.0,0.0,62,0.00,,,0.00,WUHU216HW,2013-03-10 07:13:00,
2013-03-10 03:18:00,35.3,23.9,30.27,NE,45,0.0,0.0,63,0.00,,,0.00,WUHU216HW,2013-03-10 07:18:00,
2013-03-10 03:23:00,35.1,23.8,30.27,NE,45,0.0,0.0,63,0.00,,,0.00,WUHU216HW,2013-03-10 07:23:00,
2013-03-10 03:29:00,34.9,23.9,30.27,NE,45,0.0,0.0,64,0.00,,,0.00,WUHU216HW,2013-03-10 07:29:00,
2013-03-10 03:34:00,34.9,24.3,30.27,NE,45,0.0,0.2,65,0.00,,,0.00,WUHU216HW,2013-03-10 07:34:00,
2013-03-10 03:39:00,34.7,24.1,30.27,NE,45,0.0,0.2,65,0.00,,,0.00,WUHU216HW,2013-03-10 07:39:00,
2013-03-10 03:44:00,34.9,24.7,30.27,NE,45,0.0,0.0,66,0.00,,,0.00,WUHU216HW,2013-03-10 07:44:00,
2013-03-10 03:49:00,34.7,24.5,30.27,NE,45,0.0,0.0,66,0.00,,,0.00,WUHU216HW,2013-03-10 07:49:00,
2013-03-10 03:54:00,34.7,24.5,30.27,NE,45,0.0,0.0,66,0.00,,,0.00,WUHU216HW,2013-03-10 07:54:00,
2013-03-10 03:59:00,34.7,24.8,30.27,NE,45,0.0,0.0,67,0.00,,,0.00,WUHU216HW,2013-03-10 07:59:00,
2013-03-10 04:04:00,34.7,24.8,30.26,NE,45,0.0,0.0,67,0.00,,,0.00,WUHU216HW,2013-03-10 08:04:00,
2013-03-10 04:09:00,35.1,25.2,30.26,NE,45,0.0,0.0,67,0.00,,,0.00,WUHU216HW,2013-03-10 08:09:00,
2013-03-10 04:14:00,35.1,25.2,30.26,NE,45,0.0,0.0,67,0.00,,,0.00,WUHU216HW,2013-03-10 08:14:00,
2013-03-10 04:19:00,34.9,25.0,30.25,NE,45,0.0,0.0,67,0.00,,,0.00,WUHU216HW,2013-03-10 08:19:00,
2013-03-10 04:24:00,34.7,24.8,30.25,NE,45,0.0,0.0,67,0.00,,,0.00,WUHU216HW,2013-03-10 08:24:00,
2013-03-10 04:29:00,34.6,24.7,30.25,ENE,68,0.2,0.7,67,0.00,,,0.00,WUHU216HW,2013-03-10 08:29:00,
2013-03-10 04:34:00,34.4,24.5,30.25,ENE,68,0.0,0.7,67,0.00,,,0.00,WUHU216HW,2013-03-10 08:34:00,
2013-03-10 04:39:00,34.2,24.3,30.26,ENE,68,0.0,0.4,67,0.00,,,0.00,WUHU216HW,2013-03-10 08:39:00,
2013-03-10 04:44:00,34.0,24.1,30.25,ENE,68,0.0,0.4,67,0.00,,,0.00,WUHU216HW,2013-03-10 08:44:00,
2013-03-10 04:49:00,33.7,24.1,30.25,ENE,68,0.0,0.0,68,0.00,,,0.00,WUHU216HW,2013-03-10 08:49:00,
2013-03-10 04:54:00,33.5,23.9,30.25,ENE,68,0.0,0.0,68,0.00,,,0.00,WUHU216HW,2013-03-10 08:54:00,
2013-03-10 04:59:00,33.3,24.2,30.25,ENE,68,0.0,0.0,69,0.00,,,0.00,WUHU216HW,2013-03-10 08:59:00,
2013-03-10 05:04:00,33.1,24.0,30.25,ENE,68,0.0,0.0,69,0.00,,,0.00,WUHU216HW,2013-03-10 09:04:00,
2013-03-10 05:09:00,33.1,24.4,30.26,ENE,68,0.0,0.0,70,0.00,,,0.00,WUHU216HW,2013-03-10 09:09:00,
2013-03-10 05:15:00,32.9,23.9,30.26,ENE,68,0.0,0.0,69,0.00,,,0.00,WUHU216HW,2013-03-10 09:15:00,
2013-03-10 05:20:00,32.9,24.2,30.26,ENE,68,0.0,0.0,70,0.00,,,0.00,WUHU216HW,2013-03-10 09:20:00,
2013-03-10 05:25:00,32.9,24.2,30.26,ENE,68,0.0,0.0,70,0.00,,,0.00,WUHU216HW,2013-03-10 09:25:00,
2013-03-10 05:30:00,32.9,24.2,30.26,ENE,68,0.0,0.0,70,0.00,,,0.00,WUHU216HW,2013-03-10 09:30:00,
2013-03-10 05:35:00,32.9,24.2,30.27,ENE,68,0.0,0.0,70,0.00,,,0.00,WUHU216HW,2013-03-10 09:35:00,
2013-03-10 05:40:00,33.1,25.0,30.27,ENE,68,0.0,0.0,72,0.00,,,0.00,WUHU216HW,2013-03-10 09:40:00,
2013-03-10 05:45:00,33.7,25.2,30.27,ENE,68,0.0,0.0,71,0.00,,,0.00,WUHU216HW,2013-03-10 09:45:00,
2013-03-10 05:50:00,33.8,25.4,30.27,ENE,68,0.0,0.0,71,0.00,,,0.00,WUHU216HW,2013-03-10 09:50:00,
2013-03-10 05:55:00,33.8,25.4,30.27,ENE,68,0.0,0.0,71,0.00,,,0.00,WUHU216HW,2013-03-10 09:55:00,
2013-03-10 06:00:00,33.7,24.8,30.28,ENE,68,0.0,0.0,70,0.00,,,0.00,WUHU216HW,2013-03-10 10:00:00,
2013-03-10 06:05:00,33.8,25.4,30.28,ENE,68,0.0,0.0,71,0.00,,,0.00,WUHU216HW,2013-03-10 10:05:00,
2013-03-10 06:10:00,33.8,25.4,30.28,ENE,68,0.0,0.0,71,0.00,,,0.00,WUHU216HW,2013-03-10 10:10:00,
2013-03-10 06:16:00,33.5,24.7,30.28,ENE,68,0.0,0.0,70,0.00,,,0.00,WUHU216HW,2013-03-10 10:16:00,
2013-03-10 06:21:00,33.5,25.0,30.28,ENE,68,0.0,0.0,71,0.00,,,0.00,WUHU216HW,2013-03-10 10:21:00,
2013-03-10 06:26:00,33.3,24.8,30.28,ENE,68,0.0,0.0,71,0.00,,,0.00,WUHU216HW,2013-03-10 10:26:00,
2013-03-10 06:31:00,33.1,24.7,30.29,ENE,68,0.0,0.0,71,0.00,,,0.00,WUHU216HW,2013-03-10 10:31:00,
2013-03-10 06:36:00,32.8,24.7,30.29,ENE,68,0.0,0.0,72,0.00,,,0.00,WUHU216HW,2013-03-10 10:36:00,
2013-03-10 06:41:00,32.8,24.7,30.29,ENE,68,0.0,0.0,72,0.00,,,0.00,WUHU216HW,2013-03-10 10:41:00,
2013-03-10 06:46:00,32.8,24.7,30.29,ENE,68,0.0,0.0,72,0.00,,,0.00,WUHU216HW,2013-03-10 10:46:00,
2013-03-10 06:51:00,32.6,24.6,30.29,ENE,68,0.0,0.0,72,0.00,,,0.00,WUHU216HW,2013-03-10 10:51:00,
2013-03-10 06:56:00,32.4,24.7,30.29,ENE,68,0.0,0.0,73,0.00,,,0.00,WUHU216HW,2013-03-10 10:56:00,
2013-03-10 07:01:00,32.2,24.6,30.29,ENE,68,0.0,0.0,73,0.00,,,0.00,WUHU216HW,2013-03-10 11:01:00,
2013-03-10 07:06:00,32.0,24.4,30.29,ENE,68,0.0,0.0,73,0.00,,,0.00,WUHU216HW,2013-03-10 11:06:00,
2013-03-10 07:11:00,32.0,24.7,30.29,ENE,68,0.0,0.0,74,0.00,,,0.00,WUHU216HW,2013-03-10 11:11:00,
2013-03-10 07:16:00,32.0,24.7,30.29,NE,45,0.0,0.4,74,0.00,,,0.00,WUHU216HW,2013-03-10 11:16:00,
2013-03-10 07:21:00,32.0,25.0,30.29,NE,45,0.0,0.4,75,0.00,,,0.00,WUHU216HW,2013-03-10 11:21:00,
2013-03-10 07:26:00,32.0,25.0,30.29,NE,45,0.0,0.0,75,0.00,,,0.00,WUHU216HW,2013-03-10 11:26:00,
2013-03-10 07:31:00,32.0,25.0,30.29,NE,45,0.0,0.0,75,0.00,,,0.00,WUHU216HW,2013-03-10 11:31:00,
2013-03-10 07:37:00,32.2,25.5,30.29,NE,45,0.0,0.0,76,0.00,,,0.00,WUHU216HW,2013-03-10 11:37:00,
2013-03-10 07:42:00,32.4,25.7,30.29,NE,45,0.0,0.0,76,0.00,,,0.00,WUHU216HW,2013-03-10 11:42:00,
2013-03-10 07:47:00,32.6,25.8,30.29,NE,45,0.0,0.0,76,0.00,,,0.00,WUHU216HW,2013-03-10 11:47:00,
2013-03-10 07:52:00,32.8,26.0,30.29,NE,45,0.0,0.0,76,0.00,,,0.00,WUHU216HW,2013-03-10 11:52:00,
2013-03-10 07:57:00,32.8,26.0,30.29,NE,45,0.0,0.0,76,0.00,,,0.00,WUHU216HW,2013-03-10 11:57:00,
2013-03-10 08:02:00,32.9,26.2,30.29,NE,45,0.0,0.0,76,0.00,,,0.00,WUHU216HW,2013-03-10 12:02:00,
2013-03-10 08:07:00,33.3,26.8,30.29,NE,45,0.0,0.0,77,0.00,,,0.00,WUHU216HW,2013-03-10 12:07:00,
2013-03-10 08:12:00,33.5,27.0,30.29,NE,45,0.0,0.0,77,0.00,,,0.00,WUHU216HW,2013-03-10 12:12:00,
2013-03-10 08:17:00,33.8,27.6,30.29,NE,45,0.0,0.0,78,0.00,,,0.00,WUHU216HW,2013-03-10 12:17:00,
2013-03-10 08:22:00,34.4,28.2,30.30,NE,45,0.0,0.0,78,0.00,,,0.00,WUHU216HW,2013-03-10 12:22:00,
2013-03-10 08:27:00,36.4,30.4,30.30,NE,45,0.0,0.0,79,0.00,,,0.00,WUHU216HW,2013-03-10 12:27:00,
2013-03-10 08:32:00,37.8,31.6,30.29,NE,45,0.0,0.0,78,0.00,,,0.00,WUHU216HW,2013-03-10 12:32:00,
2013-03-10 08:34:00,38.3,31.8,30.29,NE,45,0.0,0.0,77,0.00,,,0.00,WUHU216HW,2013-03-10 12:34:00,
2013-03-10 08:38:00,38.3,31.8,30.29,NE,45,0.0,0.0,77,0.00,,,0.00,WUHU216HW,2013-03-10 12:38:00,
2013-03-10 08:43:00,38.3,31.8,30.29,NE,45,0.0,0.0,77,0.00,,,0.00,WUHU216HW,2013-03-10 12:43:00,
2013-03-10 09:00:00,41.8,32.4,30.29,WNW,293,0.0,0.0,69,0.00,,,0.00,WUHU216HW,2013-03-10 13:00:00,
2013-03-10 09:05:00,42.7,33.3,30.29,NNW,338,0.0,0.4,69,0.00,,,0.00,WUHU216HW,2013-03-10 13:05:00,
2013-03-10 09:10:00,43.2,32.6,30.30,WNW,293,1.1,1.1,66,0.00,,,0.00,WUHU216HW,2013-03-10 13:10:00,
2013-03-10 09:15:00,43.7,32.8,30.30,NNE,23,0.0,1.1,65,0.00,,,0.00,WUHU216HW,2013-03-10 13:15:00,
2013-03-10 09:20:00,44.5,33.4,30.30,East,90,0.0,0.4,65,0.00,,,0.00,WUHU216HW,2013-03-10 13:20:00,
2013-03-10 09:25:00,45.4,33.8,30.30,ENE,68,0.0,0.2,64,0.00,,,0.00,WUHU216HW,2013-03-10 13:25:00,
2013-03-10 09:31:00,45.9,34.4,30.30,ENE,68,0.0,0.4,64,0.00,,,0.00,WUHU216HW,2013-03-10 13:31:00,
2013-03-10 09:36:00,47.0,35.0,30.31,ESE,113,1.6,1.6,63,0.00,,,0.00,WUHU216HW,2013-03-10 13:36:00,
2013-03-10 09:41:00,47.5,34.7,30.31,NW,315,0.9,1.6,61,0.00,,,0.00,WUHU216HW,2013-03-10 13:41:00,
2013-03-10 09:46:00,48.4,34.8,30.31,NNE,23,0.0,1.6,59,0.00,,,0.00,WUHU216HW,2013-03-10 13:46:00,
2013-03-10 09:51:00,49.1,34.6,30.31,NNE,23,0.0,0.4,57,0.00,,,0.00,WUHU216HW,2013-03-10 13:51:00,
2013-03-10 09:56:00,49.5,34.8,30.31,ENE,68,2.0,2.0,57,0.00,,,0.00,WUHU216HW,2013-03-10 13:56:00,
2013-03-10 10:01:00,50.0,35.4,30.31,ENE,68,1.8,2.0,57,0.00,,,0.00,WUHU216HW,2013-03-10 14:01:00,
2013-03-10 10:06:00,50.6,35.4,30.31,ENE,68,1.1,4.0,56,0.00,,,0.00,WUHU216HW,2013-03-10 14:06:00,
2013-03-10 10:11:00,50.9,34.8,30.31,North,0,0.0,4.0,54,0.00,,,0.00,WUHU216HW,2013-03-10 14:11:00,
2013-03-10 10:16:00,51.5,34.8,30.31,South,180,0.4,2.7,53,0.00,,,0.00,WUHU216HW,2013-03-10 14:16:00,
2013-03-10 10:21:00,51.8,35.6,30.31,East,90,3.8,3.8,54,0.00,,,0.00,WUHU216HW,2013-03-10 14:21:00,
2013-03-10 10:26:00,52.6,35.4,30.31,North,0,0.9,3.8,52,0.00,,,0.00,WUHU216HW,2013-03-10 14:26:00,
2013-03-10 10:31:00,52.6,34.5,30.32,SSE,158,0.4,3.8,50,0.00,,,0.00,WUHU216HW,2013-03-10 14:31:00,
2013-03-10 10:37:00,52.9,34.3,30.32,NW,315,1.1,3.6,49,0.00,,,0.00,WUHU216HW,2013-03-10 14:37:00,
2013-03-10 10:42:00,53.1,34.4,30.32,NE,45,0.9,2.9,49,0.00,,,0.00,WUHU216HW,2013-03-10 14:42:00,
2013-03-10 10:47:00,54.0,35.2,30.32,ENE,68,3.4,3.4,49,0.00,,,0.00,WUHU216HW,2013-03-10 14:47:00,
2013-03-10 10:52:00,54.4,35.0,30.32,NE,45,0.4,3.4,48,0.00,,,0.00,WUHU216HW,2013-03-10 14:52:00,
2013-03-10 10:57:00,54.2,34.3,30.32,SE,135,0.4,2.0,47,0.00,,,0.00,WUHU216HW,2013-03-10 14:57:00,
2013-03-10 11:02:00,54.2,33.8,30.32,NNE,23,6.3,6.3,46,0.00,,,0.00,WUHU216HW,2013-03-10 15:02:00,
2013-03-10 11:07:00,54.4,34.5,30.32,NNW,338,3.8,6.3,47,0.00,,,0.00,WUHU216HW,2013-03-10 15:07:00,
2013-03-10 11:12:00,54.4,33.8,30.32,SSE,158,1.1,5.8,46,0.00,,,0.00,WUHU216HW,2013-03-10 15:12:00,
2013-03-10 11:17:00,54.7,34.2,30.32,NNE,23,3.4,5.8,46,0.00,,,0.00,WUHU216HW,2013-03-10 15:17:00,
2013-03-10 11:22:00,54.5,33.5,30.31,North,0,0.9,3.4,45,0.00,,,0.00,WUHU216HW,2013-03-10 15:22:00,
2013-03-10 11:27:00,54.5,33.5,30.31,North,0,1.8,4.7,45,0.00,,,0.00,WUHU216HW,2013-03-10 15:27:00,
2013-03-10 11:32:00,54.5,33.5,30.31,ENE,68,4.3,4.7,45,0.00,,,0.00,WUHU216HW,2013-03-10 15:32:00,
2013-03-10 11:38:00,54.7,33.7,30.31,NE,45,2.5,4.3,45,0.00,,,0.00,WUHU216HW,2013-03-10 15:38:00,
2013-03-10 11:43:00,55.1,33.9,30.31,NE,45,1.3,2.9,45,0.00,,,0.00,WUHU216HW,2013-03-10 15:43:00,
2013-03-10 11:48:00,55.4,33.2,30.31,WSW,248,1.3,3.8,43,0.00,,,0.00,WUHU216HW,2013-03-10 15:48:00,
2013-03-10 11:53:00,55.8,34.7,30.31,North,0,1.1,3.8,45,0.00,,,0.00,WUHU216HW,2013-03-10 15:53:00,
2013-03-10 11:58:00,56.0,34.2,30.31,NNE,23,1.3,3.4,44,0.00,,,0.00,WUHU216HW,2013-03-10 15:58:00,
2013-03-10 12:03:00,56.2,34.4,30.31,NNE,23,3.6,3.6,44,0.00,,,0.00,WUHU216HW,2013-03-10 16:03:00,
2013-03-10 12:08:00,56.3,34.0,30.30,ESE,113,1.6,3.8,43,0.00,,,0.00,WUHU216HW,2013-03-10 16:08:00,
2013-03-10 12:13:00,56.3,33.5,30.30,SE,135,2.7,3.8,42,0.00,,,0.00,WUHU216HW,2013-03-10 16:13:00,
2013-03-10 12:15:00,56.5,34.2,30.30,ENE,68,2.5,2.5,43,0.00,,,0.00,WUHU216HW,2013-03-10 16:15:00,
2013-03-10 12:18:00,56.5,34.2,30.30,ENE,68,2.5,2.9,43,0.00,,,0.00,WUHU216HW,2013-03-10 16:18:00,
2013-03-10 12:23:00,56.5,34.2,30.30,ENE,68,2.5,2.7,43,0.00,,,0.00,WUHU216HW,2013-03-10 16:23:00,
2013-03-10 12:45:00,58.0,34.4,30.30,West,270,0.4,0.4,41,0.00,,,0.00,WUHU216HW,2013-03-10 16:45:00,
2013-03-10 12:50:00,58.1,33.2,30.30,WSW,248,0.7,0.9,39,0.00,,,0.00,WUHU216HW,2013-03-10 16:50:00,
2013-03-10 12:55:00,58.5,34.3,30.30,ENE,68,4.7,4.7,40,0.00,,,0.00,WUHU216HW,2013-03-10 16:55:00,
2013-03-10 13:00:00,58.7,34.4,30.30,ENE,68,0.9,4.7,40,0.00,,,0.00,WUHU216HW,2013-03-10 17:00:00,
2013-03-10 13:05:00,58.7,33.8,30.29,West,270,0.9,4.7,39,0.00,,,0.00,WUHU216HW,2013-03-10 17:05:00,
2013-03-10 13:10:00,59.0,34.0,30.29,West,270,0.4,1.1,39,0.00,,,0.00,WUHU216HW,2013-03-10 17:10:00,
2013-03-10 13:16:00,59.4,32.9,30.29,NW,315,1.1,1.1,37,0.00,,,0.00,WUHU216HW,2013-03-10 17:16:00,
2013-03-10 13:21:00,59.6,33.9,30.29,North,0,0.9,1.1,38,0.00,,,0.00,WUHU216HW,2013-03-10 17:21:00,
2013-03-10 13:26:00,59.9,34.1,30.28,SE,135,0.4,3.4,38,0.00,,,0.00,WUHU216HW,2013-03-10 17:26:00,
2013-03-10 13:31:00,59.9,31.3,30.28,WNW,293,1.1,3.4,34,0.00,,,0.00,WUHU216HW,2013-03-10 17:31:00,
2013-03-10 13:36:00,60.1,32.9,30.28,NE,45,4.5,4.5,36,0.00,,,0.00,WUHU216HW,2013-03-10 17:36:00,
2013-03-10 13:41:00,60.5,33.9,30.28,NE,45,1.8,4.5,37,0.00,,,0.00,WUHU216HW,2013-03-10 17:41:00,
2013-03-10 13:46:00,60.7,33.3,30.28,SE,135,0.2,3.6,36,0.00,,,0.00,WUHU216HW,2013-03-10 17:46:00,
2013-03-10 13:51:00,60.7,33.3,30.27,SE,135,0.0,1.8,36,0.00,,,0.00,WUHU216HW,2013-03-10 17:51:00,
2013-03-10 13:56:00,60.8,32.0,30.27,ESE,113,0.4,0.4,34,0.00,,,0.00,WUHU216HW,2013-03-10 17:56:00,
2013-03-10 14:01:00,61.0,32.2,30.27,NE,45,2.5,2.5,34,0.00,,,0.00,WUHU216HW,2013-03-10 18:01:00,
2013-03-10 14:06:00,61.2,32.4,30.27,East,90,2.0,2.5,34,0.00,,,0.00,WUHU216HW,2013-03-10 18:06:00,
2013-03-10 14:11:00,61.4,30.3,30.26,WNW,293,1.8,2.5,31,0.00,,,0.00,WUHU216HW,2013-03-10 18:11:00,
2013-03-10 14:17:00,61.4,29.6,30.25,WSW,248,0.9,3.4,30,0.00,,,0.00,WUHU216HW,2013-03-10 18:17:00,
2013-03-10 14:22:00,61.6,30.5,30.25,East,90,2.2,3.4,31,0.00,,,0.00,WUHU216HW,2013-03-10 18:22:00,
2013-03-10 14:27:00,61.6,26.9,30.24,West,270,2.0,4.9,27,0.00,,,0.00,WUHU216HW,2013-03-10 18:27:00,
2013-03-10 14:32:00,61.6,28.9,30.24,WNW,293,1.1,4.9,29,0.00,,,0.00,WUHU216HW,2013-03-10 18:32:00,
2013-03-10 14:37:00,61.6,30.5,30.24,SE,135,2.9,2.9,31,0.00,,,0.00,WUHU216HW,2013-03-10 18:37:00,
2013-03-10 14:42:00,61.6,25.9,30.24,West,270,4.7,4.7,26,0.00,,,0.00,WUHU216HW,2013-03-10 18:42:00,
2013-03-10 14:47:00,61.7,26.1,30.23,SW,225,0.9,4.7,26,0.00,,,0.00,WUHU216HW,2013-03-10 18:47:00,
2013-03-10 14:52:00,61.9,28.2,30.23,West,270,1.1,2.2,28,0.00,,,0.00,WUHU216HW,2013-03-10 18:52:00,
2013-03-10 14:57:00,62.3,25.7,30.24,WSW,248,1.1,1.6,25,0.00,,,0.00,WUHU216HW,2013-03-10 18:57:00,
2013-03-10 15:02:00,62.3,27.5,30.23,NNW,338,0.7,4.0,27,0.00,,,0.00,WUHU216HW,2013-03-10 19:02:00,
2013-03-10 15:07:00,62.3,25.7,30.23,ESE,113,2.5,4.0,25,0.00,,,0.00,WUHU216HW,2013-03-10 19:07:00,
2013-03-10 15:12:00,62.5,25.7,30.23,ESE,113,2.7,2.7,25,0.00,,,0.00,WUHU216HW,2013-03-10 19:12:00,
2013-03-10 15:17:00,62.1,25.5,30.23,East,90,0.9,4.0,25,0.00,,,0.00,WUHU216HW,2013-03-10 19:17:00,
2013-03-10 15:22:00,62.1,25.5,30.23,SSE,158,1.1,4.0,25,0.00,,,0.00,WUHU216HW,2013-03-10 19:22:00,
2013-03-10 15:27:00,62.3,25.7,30.23,WNW,293,1.8,3.6,25,0.00,,,0.00,WUHU216HW,2013-03-10 19:27:00,
2013-03-10 15:32:00,62.5,25.7,30.23,NNW,338,3.4,3.6,25,0.00,,,0.00,WUHU216HW,2013-03-10 19:32:00,
2013-03-10 15:37:00,62.3,22.7,30.23,NW,315,3.4,3.4,22,0.00,,,0.00,WUHU216HW,2013-03-10 19:37:00,
2013-03-10 15:42:00,62.3,23.7,30.23,West,270,1.3,3.4,23,0.00,,,0.00,WUHU216HW,2013-03-10 19:42:00,
2013-03-10 15:47:00,62.3,24.7,30.23,NW,315,0.4,2.2,24,0.00,,,0.00,WUHU216HW,2013-03-10 19:47:00,
2013-03-10 15:52:00,62.6,26.9,30.23,East,90,2.7,2.7,26,0.00,,,0.00,WUHU216HW,2013-03-10 19:52:00,
2013-03-10 15:58:00,62.3,24.7,30.23,ENE,68,1.3,3.6,24,0.00,,,0.00,WUHU216HW,2013-03-10 19:58:00,
2013-03-10 16:03:00,62.6,23.9,30.23,NW,315,1.8,3.6,23,0.00,,,0.00,WUHU216HW,2013-03-10 20:03:00,
2013-03-10 16:08:00,62.8,26.1,30.22,ESE,113,2.0,2.0,25,0.00,,,0.00,WUHU216HW,2013-03-10 20:08:00,
2013-03-10 16:13:00,63.0,25.3,30.23,North,0,3.4,3.4,24,0.00,,,0.00,WUHU216HW,2013-03-10 20:13:00,
2013-03-10 16:18:00,63.5,25.8,30.23,SSE,158,1.8,3.4,24,0.00,,,0.00,WUHU216HW,2013-03-10 20:18:00,
2013-03-10 16:23:00,63.9,25.0,30.22,NE,45,1.3,3.4,23,0.00,,,0.00,WUHU216HW,2013-03-10 20:23:00,
2013-03-10 16:28:00,64.6,24.7,30.22,NE,45,0.9,2.2,22,0.00,,,0.00,WUHU216HW,2013-03-10 20:28:00,
2013-03-10 16:33:00,64.8,21.3,30.22,SE,135,1.6,2.2,19,0.00,,,0.00,WUHU216HW,2013-03-10 20:33:00,
2013-03-10 16:38:00,65.2,24.0,30.22,SSE,158,1.3,1.8,21,0.00,,,0.00,WUHU216HW,2013-03-10 20:38:00,
2013-03-10 16:43:00,65.5,25.4,30.22,WSW,248,1.1,1.6,22,0.00,,,0.00,WUHU216HW,2013-03-10 20:43:00,
2013-03-10 16:48:00,65.9,24.7,30.22,WSW,248,1.8,1.8,21,0.00,,,0.00,WUHU216HW,2013-03-10 20:48:00,
2013-03-10 16:53:00,65.9,25.7,30.22,ESE,113,0.9,6.9,22,0.00,,,0.00,WUHU216HW,2013-03-10 20:53:00,
2013-03-10 16:58:00,65.9,22.1,30.22,West,270,4.3,6.9,19,0.00,,,0.00,WUHU216HW,2013-03-10 20:58:00,
2013-03-10 17:04:00,65.5,24.4,30.22,ESE,113,0.2,4.3,21,0.00,,,0.00,WUHU216HW,2013-03-10 21:04:00,
2013-03-10 17:09:00,65.5,24.4,30.21,NW,315,2.0,3.1,21,0.00,,,0.00,WUHU216HW,2013-03-10 21:09:00,
2013-03-10 17:14:00,65.3,24.2,30.21,SW,225,1.1,2.7,21,0.00,,,0.00,WUHU216HW,2013-03-10 21:14:00,
2013-03-10 17:19:00,64.8,22.8,30.21,ENE,68,0.9,2.0,20,0.00,,,0.00,WUHU216HW,2013-03-10 21:19:00,
2013-03-10 17:24:00,63.2,23.5,30.21,East,90,0.4,1.8,22,0.00,,,0.00,WUHU216HW,2013-03-10 21:24:00,
2013-03-10 17:29:00,62.6,22.1,30.21,WNW,293,1.1,1.8,21,0.00,,,0.00,WUHU216HW,2013-03-10 21:29:00,
2013-03-10 17:34:00,62.3,22.7,30.20,SSW,203,0.4,1.3,22,0.00,,,0.00,WUHU216HW,2013-03-10 21:34:00,
2013-03-10 17:39:00,62.1,24.5,30.21,SSW,203,1.1,1.1,24,0.00,,,0.00,WUHU216HW,2013-03-10 21:39:00,
2013-03-10 17:44:00,61.7,23.2,30.20,West,270,1.8,2.0,23,0.00,,,0.00,WUHU216HW,2013-03-10 21:44:00,
2013-03-10 17:49:00,61.6,22.2,30.20,WNW,293,1.6,2.0,22,0.00,,,0.00,WUHU216HW,2013-03-10 21:49:00,
2013-03-10 17:54:00,61.4,22.0,30.20,North,0,1.1,1.8,22,0.00,,,0.00,WUHU216HW,2013-03-10 21:54:00,
2013-03-10 17:59:00,61.4,22.0,30.20,North,0,1.1,1.6,22,0.00,,,0.00,WUHU216HW,2013-03-10 21:59:00,
2013-03-10 18:05:00,60.7,24.2,30.20,SSW,203,0.4,0.9,25,0.00,,,0.00,WUHU216HW,2013-03-10 22:05:00,
2013-03-10 18:10:00,60.3,24.0,30.20,West,270,1.3,1.3,25,0.00,,,0.00,WUHU216HW,2013-03-10 22:10:00,
2013-03-10 18:15:00,59.9,23.7,30.20,West,270,0.7,2.0,25,0.00,,,0.00,WUHU216HW,2013-03-10 22:15:00,
2013-03-10 18:20:00,59.9,23.7,30.20,WNW,293,0.2,2.0,25,0.00,,,0.00,WUHU216HW,2013-03-10 22:20:00,
2013-03-10 18:25:00,59.8,24.5,30.20,WNW,293,0.4,0.4,26,0.00,,,0.00,WUHU216HW,2013-03-10 22:25:00,
2013-03-10 18:30:00,59.8,25.4,30.20,West,270,0.7,1.8,27,0.00,,,0.00,WUHU216HW,2013-03-10 22:30:00,
2013-03-10 18:35:00,59.4,25.1,30.20,West,270,0.4,1.8,27,0.00,,,0.00,WUHU216HW,2013-03-10 22:35:00,
2013-03-10 18:40:00,59.2,24.9,30.20,ESE,113,1.3,1.3,27,0.00,,,0.00,WUHU216HW,2013-03-10 22:40:00,
2013-03-10 18:45:00,58.7,25.5,30.21,ESE,113,0.4,1.3,28,0.00,,,0.00,WUHU216HW,2013-03-10 22:45:00,
2013-03-10 18:50:00,58.3,25.1,30.21,WNW,293,1.1,1.1,28,0.00,,,0.00,WUHU216HW,2013-03-10 22:50:00,
2013-03-10 18:55:00,58.0,24.9,30.21,West,270,0.7,1.6,28,0.00,,,0.00,WUHU216HW,2013-03-10 22:55:00,
2013-03-10 19:00:00,57.6,24.5,30.21,ESE,113,0.9,1.6,28,0.00,,,0.00,WUHU216HW,2013-03-10 23:00:00,
2013-03-10 19:06:00,57.2,25.1,30.21,NW,315,0.0,1.1,29,0.00,,,0.00,WUHU216HW,2013-03-10 23:06:00,
2013-03-10 19:11:00,57.1,24.0,30.22,WNW,293,1.1,1.1,28,0.00,,,0.00,WUHU216HW,2013-03-10 23:11:00,
2013-03-10 19:16:00,56.5,24.5,30.22,WNW,293,1.1,1.1,29,0.00,,,0.00,WUHU216HW,2013-03-10 23:16:00,
2013-03-10 19:21:00,56.2,24.2,30.22,NW,315,0.4,1.6,29,0.00,,,0.00,WUHU216HW,2013-03-10 23:21:00,
2013-03-10 19:26:00,55.8,23.9,30.23,SE,135,0.2,1.6,29,0.00,,,0.00,WUHU216HW,2013-03-10 23:26:00,
2013-03-10 19:31:00,55.4,24.5,30.23,NW,315,0.7,1.1,30,0.00,,,0.00,WUHU216HW,2013-03-10 23:31:00,
2013-03-10 19:36:00,55.4,24.5,30.22,South,180,1.3,1.3,30,0.00,,,0.00,WUHU216HW,2013-03-10 23:36:00,
2013-03-10 19:41:00,54.9,24.0,30.22,SE,135,0.7,1.3,30,0.00,,,0.00,WUHU216HW,2013-03-10 23:41:00,
2013-03-10 19:46:00,54.7,24.0,30.22,WSW,248,0.4,1.1,30,0.00,,,0.00,WUHU216HW,2013-03-10 23:46:00,
2013-03-10 19:51:00,54.4,24.3,30.23,West,270,0.0,1.1,31,0.00,,,0.00,WUHU216HW,2013-03-10 23:51:00,
2013-03-10 19:56:00,54.4,24.3,30.23,NW,315,0.0,2.2,31,0.00,,,0.00,WUHU216HW,2013-03-10 23:56:00,
2013-03-10 20:01:00,53.8,23.9,30.23,ESE,113,0.2,2.2,31,0.00,,,0.00,WUHU216HW,2013-03-11 00:01:00,
2013-03-10 20:06:00,53.6,23.8,30.23,WSW,248,0.0,0.7,31,0.00,,,0.00,WUHU216HW,2013-03-11 00:06:00,
2013-03-10 20:11:00,53.3,23.4,30.23,SSW,203,0.0,0.4,31,0.00,,,0.00,WUHU216HW,2013-03-11 00:11:00,
2013-03-10 20:17:00,52.9,23.8,30.23,South,180,0.0,0.0,32,0.00,,,0.00,WUHU216HW,2013-03-11 00:17:00,
2013-03-10 20:22:00,52.6,23.4,30.23,NNE,23,0.0,0.4,32,0.00,,,0.00,WUHU216HW,2013-03-11 00:22:00,
2013-03-10 20:27:00,52.2,23.1,30.23,NE,45,0.0,0.4,32,0.00,,,0.00,WUHU216HW,2013-03-11 00:27:00,
2013-03-10 20:32:00,51.8,22.8,30.24,NE,45,0.0,0.2,32,0.00,,,0.00,WUHU216HW,2013-03-11 00:32:00,
2013-03-10 20:37:00,51.7,22.6,30.25,NE,45,0.0,0.0,32,0.00,,,0.00,WUHU216HW,2013-03-11 00:37:00,
2013-03-10 20:42:00,51.3,22.3,30.24,NNE,23,0.0,1.1,32,0.00,,,0.00,WUHU216HW,2013-03-11 00:42:00,
2013-03-10 20:47:00,50.9,22.7,30.24,NW,315,0.9,0.9,33,0.00,,,0.00,WUHU216HW,2013-03-11 00:47:00,
2013-03-10 20:53:00,50.9,22.7,30.24,SSW,203,0.0,0.9,33,0.00,,,0.00,WUHU216HW,2013-03-11 00:53:00,
2013-03-10 20:58:00,50.9,22.7,30.24,SSE,158,0.2,0.7,33,0.00,,,0.00,WUHU216HW,2013-03-11 00:58:00,
2013-03-10 21:03:00,51.1,22.9,30.23,South,180,0.2,0.4,33,0.00,,,0.00,WUHU216HW,2013-03-11 01:03:00,
2013-03-10 21:08:00,50.8,22.5,30.23,SSW,203,0.4,0.4,33,0.00,,,0.00,WUHU216HW,2013-03-11 01:08:00,
2013-03-10 21:13:00,50.8,22.5,30.23,WNW,293,1.6,1.6,33,0.00,,,0.00,WUHU216HW,2013-03-11 01:13:00,
2013-03-10 21:18:00,50.8,22.5,30.23,WSW,248,0.0,2.0,33,0.00,,,0.00,WUHU216HW,2013-03-11 01:18:00,
2013-03-10 21:23:00,50.8,22.5,30.23,South,180,0.0,2.0,33,0.00,,,0.00,WUHU216HW,2013-03-11 01:23:00,
2013-03-10 21:28:00,50.4,22.1,30.23,West,270,0.4,0.9,33,0.00,,,0.00,WUHU216HW,2013-03-11 01:28:00,
2013-03-10 21:33:00,50.2,22.1,30.23,West,270,0.9,1.6,33,0.00,,,0.00,WUHU216HW,2013-03-11 01:33:00,
2013-03-10 21:38:00,50.0,22.5,30.23,NE,45,0.4,1.6,34,0.00,,,0.00,WUHU216HW,2013-03-11 01:38:00,
2013-03-10 21:43:00,49.9,22.4,30.23,WNW,293,0.2,1.1,34,0.00,,,0.00,WUHU216HW,2013-03-11 01:43:00,
2013-03-10 21:48:00,49.5,22.8,30.23,ESE,113,0.4,0.9,35,0.00,,,0.00,WUHU216HW,2013-03-11 01:48:00,
2013-03-10 21:53:00,49.3,23.3,30.23,ESE,113,0.0,0.4,36,0.00,,,0.00,WUHU216HW,2013-03-11 01:53:00,
2013-03-10 21:58:00,49.0,23.7,30.23,SSW,203,0.0,0.4,37,0.00,,,0.00,WUHU216HW,2013-03-11 01:58:00,
2013-03-10 22:03:00,48.6,24.0,30.23,West,270,0.0,0.2,38,0.00,,,0.00,WUHU216HW,2013-03-11 02:03:00,
2013-03-10 22:08:00,48.6,24.0,30.23,SE,135,0.0,0.4,38,0.00,,,0.00,WUHU216HW,2013-03-11 02:08:00,
2013-03-10 22:13:00,48.4,23.9,30.23,ESE,113,0.7,0.7,38,0.00,,,0.00,WUHU216HW,2013-03-11 02:13:00,
2013-03-10 22:18:00,48.1,24.8,30.23,WNW,293,0.0,0.7,40,0.00,,,0.00,WUHU216HW,2013-03-11 02:18:00,
2013-03-10 22:24:00,47.9,24.7,30.23,SE,135,0.0,0.7,40,0.00,,,0.00,WUHU216HW,2013-03-11 02:24:00,
2013-03-10 22:29:00,47.7,25.7,30.23,West,270,0.0,0.7,42,0.00,,,0.00,WUHU216HW,2013-03-11 02:29:00,
2013-03-10 22:34:00,47.5,26.0,30.23,East,90,0.4,0.9,43,0.00,,,0.00,WUHU216HW,2013-03-11 02:34:00,
2013-03-10 22:39:00,47.3,26.4,30.23,East,90,0.9,0.9,44,0.00,,,0.00,WUHU216HW,2013-03-11 02:39:00,
2013-03-10 22:44:00,47.2,26.7,30.24,NNW,338,0.0,0.9,45,0.00,,,0.00,WUHU216HW,2013-03-11 02:44:00,
2013-03-10 22:49:00,47.0,27.1,30.25,NNE,23,0.0,0.9,46,0.00,,,0.00,WUHU216HW,2013-03-11 02:49:00,
2013-03-10 22:54:00,46.8,27.0,30.25,NE,45,0.0,0.4,46,0.00,,,0.00,WUHU216HW,2013-03-11 02:54:00,
2013-03-10 22:59:00,46.4,27.7,30.25,North,0,0.0,0.4,48,0.00,,,0.00,WUHU216HW,2013-03-11 02:59:00,
2013-03-10 23:05:00,46.3,28.1,30.25,North,0,0.0,0.4,49,0.00,,,0.00,WUHU216HW,2013-03-11 03:05:00,
2013-03-10 23:10:00,46.3,28.6,30.25,WSW,248,0.2,0.4,50,0.00,,,0.00,WUHU216HW,2013-03-11 03:10:00,
2013-03-10 23:15:00,46.1,28.4,30.24,SSE,158,0.0,0.2,50,0.00,,,0.00,WUHU216HW,2013-03-11 03:15:00,
2013-03-10 23:20:00,46.1,28.9,30.24,SSW,203,0.0,0.2,51,0.00,,,0.00,WUHU216HW,2013-03-11 03:20:00,
2013-03-10 23:25:00,45.9,29.3,30.23,South,180,0.0,0.2,52,0.00,,,0.00,WUHU216HW,2013-03-11 03:25:00,
2013-03-10 23:30:00,45.7,29.1,30.23,WSW,248,0.0,0.4,52,0.00,,,0.00,WUHU216HW,2013-03-11 03:30:00,
2013-03-10 23:35:00,45.7,29.5,30.23,ESE,113,0.7,0.7,53,0.00,,,0.00,WUHU216HW,2013-03-11 03:35:00,
2013-03-10 23:40:00,45.7,30.0,30.23,SE,135,0.2,0.7,54,0.00,,,0.00,WUHU216HW,2013-03-11 03:40:00,
2013-03-10 23:45:00,45.7,31.3,30.23,North,0,0.4,0.4,57,0.00,,,0.00,WUHU216HW,2013-03-11 03:45:00,
2013-03-10 23:50:00,45.7,30.9,30.23,NW,315,0.4,0.4,56,0.00,,,0.00,WUHU216HW,2013-03-11 03:50:00,
2013-03-10 23:55:00,45.7,31.3,30.23,NW,315,0.0,0.7,57,0.00,,,0.00,WUHU216HW,2013-03-11 03:55:00,